Airport View

Enter AWOS ICAO identifier for current METAR.

ex. KFNL

KRCV 171325Z AUTO 27012KT 10SM CLR M02/M10 A3026 RMK AO2 T10171104

17 Nov 2019 13:25

Frequency: 118.275

Phone: 719-657-9017

Other Area AWOS: K04V - KCPW - KALS - KPSO

TAF KALS 171120Z 1712/1812 VRB06KT P6SM FEW200